« Back
NWS Peachtree City, Ga » Text Product » AHN Terminal Aerodrome Forecast


Printer-friendly Version
Current Version              Previous Versions:   1  2  3  4  5  6  7  8  9  

Terminal Aerodrome Forecast

010
FTUS42 KFFC 040520
TAFAHN
TAF
KAHN 040520Z 0406/0506 00000KT P6SM SCT250
      TEMPO 0410/0412 5SM BR SCT020
     FM041400 31003KT P6SM FEW250
     FM041700 28004KT P6SM FEW040
     FM050100 00000KT P6SM FEW080 SCT250=



USA.gov is the U.S. government's official web portal to all federal, state and local government web resources and services.